Time;durP1;ratioP1;P1;durP2;ratioP2;P2;SDS_P1;SDS_P2;PMS_P1;PMS_P2;Temp;Humidity;BMP_temperature;BMP_pressure;BME280_temperature;BME280_humidity;BME280_pressure;Samples;Min_cycle;Max_cycle;Signal;HPM_P1;HPM_P2
2023/11/02 00:01:11;;;;;;;2.63;0.68;;;;;;;;;;5134243;27;20027;-66
2023/11/02 00:03:42;;;;;;;3.15;1.30;;;;;;;;;;5119615;27;20425;-66
2023/11/02 00:06:18;;;;;;;3.35;1.60;;;;;;;;;;5134357;27;20023;-66
2023/11/02 00:08:54;;;;;;;5.28;1.60;;;;;;;;;;5132920;27;20027;-65
2023/11/02 00:11:39;;;;;;;2.60;1.15;;;;;;;;;;5130408;27;20030;-65
2023/11/02 00:14:06;;;;;;;2.83;1.40;;;;;;;;;;5133449;27;20058;-65
2023/11/02 00:16:34;;;;;;;2.40;1.30;;;;;;;;;;5132783;27;20043;-65
2023/11/02 00:19:00;;;;;;;1.65;1.13;;;;;;;;;;5133220;27;20341;-65
2023/11/02 00:21:27;;;;;;;2.33;1.27;;;;;;;;;;5133519;27;20019;-65
2023/11/02 00:23:53;;;;;;;1.75;0.77;;;;;;;;;;5133022;27;20022;-65
2023/11/02 00:26:20;;;;;;;1.15;0.93;;;;;;;;;;5132999;27;20098;-66
2023/11/02 00:28:46;;;;;;;2.58;0.57;;;;;;;;;;5132751;27;20821;-65
2023/11/02 00:31:12;;;;;;;2.17;1.30;;;;;;;;;;5132928;27;20090;-65
2023/11/02 00:33:38;;;;;;;1.17;0.80;;;;;;;;;;5132494;27;20368;-65
2023/11/02 00:36:04;;;;;;;2.95;0.82;;;;;;;;;;5133377;27;20011;-65
2023/11/02 00:38:31;;;;;;;2.47;0.88;;;;;;;;;;5125776;27;20016;-65
2023/11/02 00:40:58;;;;;;;1.55;0.70;;;;;;;;;;5131011;27;20380;-65
2023/11/02 00:43:24;;;;;;;2.15;0.82;;;;;;;;;;5133168;27;20050;-65
2023/11/02 00:45:51;;;;;;;1.67;1.08;;;;;;;;;;5132505;27;20379;-65
2023/11/02 00:48:17;;;;;;;1.73;0.77;;;;;;;;;;5132757;27;20015;-66
2023/11/02 00:50:52;;;;;;;3.38;1.15;;;;;;;;;;5132763;27;20023;-66
2023/11/02 00:53:18;;;;;;;1.17;0.77;;;;;;;;;;5128232;27;20023;-65
2023/11/02 00:55:44;;;;;;;0.85;0.50;;;;;;;;;;5131815;27;20098;-65
2023/11/02 00:58:16;;;;;;;4.03;0.80;;;;;;;;;;5132715;27;20019;-66
2023/11/02 01:00:48;;;;;;;1.55;0.57;;;;;;;;;;5132649;27;20065;-66
2023/11/02 01:03:14;;;;;;;2.63;1.30;;;;;;;;;;5129436;27;20076;-66
2023/11/02 01:05:40;;;;;;;1.52;0.68;;;;;;;;;;5132245;27;20059;-65
2023/11/02 01:08:06;;;;;;;1.02;0.70;;;;;;;;;;5132476;27;20066;-65
2023/11/02 01:10:32;;;;;;;1.75;0.82;;;;;;;;;;5132770;27;20464;-65
2023/11/02 01:12:58;;;;;;;0.88;0.70;;;;;;;;;;5132439;27;20098;-65
2023/11/02 01:15:34;;;;;;;0.90;0.70;;;;;;;;;;5132448;27;20857;-65
2023/11/02 01:18:00;;;;;;;1.35;0.60;;;;;;;;;;5132007;27;20030;-65
2023/11/02 01:20:26;;;;;;;3.17;0.68;;;;;;;;;;5132995;27;20027;-65
2023/11/02 01:22:54;;;;;;;1.50;0.55;;;;;;;;;;5131749;27;20023;-65
2023/11/02 01:25:21;;;;;;;2.35;0.70;;;;;;;;;;5132388;27;20003;-65
2023/11/02 01:27:47;;;;;;;2.08;0.75;;;;;;;;;;5131918;27;20022;-65
2023/11/02 01:30:22;;;;;;;1.85;0.70;;;;;;;;;;5132663;27;20042;-65
2023/11/02 01:32:49;;;;;;;5.80;1.02;;;;;;;;;;5130954;27;20062;-65
2023/11/02 01:35:34;;;;;;;2.00;0.95;;;;;;;;;;5130869;27;20043;-65
2023/11/02 01:38:00;;;;;;;1.20;0.88;;;;;;;;;;5121837;27;20031;-65
2023/11/02 01:40:36;;;;;;;6.97;0.80;;;;;;;;;;5132281;27;20015;-65
2023/11/02 01:43:04;;;;;;;2.63;0.60;;;;;;;;;;5132094;27;20347;-65
2023/11/02 01:45:33;;;;;;;1.70;0.80;;;;;;;;;;5131520;27;20050;-65
2023/11/02 01:48:06;;;;;;;1.17;0.77;;;;;;;;;;5131949;27;20094;-65
2023/11/02 01:50:34;;;;;;;1.95;0.85;;;;;;;;;;5131509;27;20100;-65
2023/11/02 01:53:18;;;;;;;3.63;0.80;;;;;;;;;;5131815;27;20019;-65
2023/11/02 01:55:55;;;;;;;0.98;0.82;;;;;;;;;;5131151;28;20068;-65
2023/11/02 01:58:30;;;;;;;2.97;0.65;;;;;;;;;;5131936;28;20035;-65
2023/11/02 02:01:08;;;;;;;2.20;0.98;;;;;;;;;;5132024;28;20023;-65
2023/11/02 02:03:37;;;;;;;3.33;0.90;;;;;;;;;;5130787;28;20027;-65
2023/11/02 02:06:19;;;;;;;1.73;0.95;;;;;;;;;;5131681;28;20426;-66
2023/11/02 02:08:48;;;;;;;2.88;0.85;;;;;;;;;;5123873;28;20011;-65
2023/11/02 02:11:23;;;;;;;0.95;0.60;;;;;;;;;;5127652;28;20084;-65
2023/11/02 02:14:00;;;;;;;3.55;0.85;;;;;;;;;;5130720;28;20102;-65
2023/11/02 02:16:38;;;;;;;5.18;1.00;;;;;;;;;;5131594;28;20039;-65
2023/11/02 02:19:14;;;;;;;2.42;0.90;;;;;;;;;;5131813;27;20438;-65
2023/11/02 02:21:43;;;;;;;2.15;1.20;;;;;;;;;;5113077;28;20333;-65
2023/11/02 02:24:18;;;;;;;1.95;0.70;;;;;;;;;;5131730;28;20024;-65
2023/11/02 02:26:53;;;;;;;0.80;0.80;;;;;;;;;;5130969;28;20416;-65
2023/11/02 02:29:19;;;;;;;1.75;0.98;;;;;;;;;;5129632;28;20034;-65
2023/11/02 02:32:03;;;;;;;1.75;1.08;;;;;;;;;;5130849;28;20023;-65
2023/11/02 02:34:35;;;;;;;4.00;1.20;;;;;;;;;;5119295;28;20037;-65
2023/11/02 02:37:07;;;;;;;2.35;0.88;;;;;;;;;;5127740;28;20026;-65
2023/11/02 02:39:36;;;;;;;3.58;0.93;;;;;;;;;;5130896;28;20019;-65
2023/11/02 02:42:03;;;;;;;1.33;0.93;;;;;;;;;;5133129;27;20495;-65
2023/11/02 02:44:31;;;;;;;2.30;1.00;;;;;;;;;;5134824;27;20079;-65
2023/11/02 02:47:00;;;;;;;3.72;1.08;;;;;;;;;;5135518;27;20022;-66
2023/11/02 02:49:28;;;;;;;2.10;0.90;;;;;;;;;;5135154;27;20452;-66
2023/11/02 02:51:55;;;;;;;3.45;1.02;;;;;;;;;;5134994;27;20019;-66
2023/11/02 02:54:22;;;;;;;5.25;1.20;;;;;;;;;;5135159;27;20031;-65
2023/11/02 02:56:48;;;;;;;2.45;0.93;;;;;;;;;;5134600;27;20138;-65
2023/11/02 02:59:18;;;;;;;2.40;0.93;;;;;;;;;;5123974;27;20022;-66
2023/11/02 03:01:45;;;;;;;2.22;1.02;;;;;;;;;;5130222;27;20059;-65
2023/11/02 03:04:13;;;;;;;1.60;1.20;;;;;;;;;;5126094;27;20080;-65
2023/11/02 03:06:40;;;;;;;1.35;0.90;;;;;;;;;;5134420;27;20477;-65
2023/11/02 03:09:07;;;;;;;2.88;1.10;;;;;;;;;;5134475;27;20414;-65
2023/11/02 03:11:34;;;;;;;1.45;0.90;;;;;;;;;;5134567;27;20026;-65
2023/11/02 03:14:04;;;;;;;2.35;1.25;;;;;;;;;;5134515;27;20034;-65
2023/11/02 03:16:34;;;;;;;2.13;1.33;;;;;;;;;;5134123;27;20079;-65
2023/11/02 03:19:00;;;;;;;1.38;0.80;;;;;;;;;;5134673;27;20042;-66
2023/11/02 03:21:26;;;;;;;3.38;0.80;;;;;;;;;;5135142;27;20444;-65
2023/11/02 03:23:55;;;;;;;1.88;0.90;;;;;;;;;;5133870;27;20034;-65
2023/11/02 03:26:40;;;;;;;3.83;0.90;;;;;;;;;;5135692;27;20470;-65
2023/11/02 03:29:06;;;;;;;1.13;0.90;;;;;;;;;;5134137;27;20020;-66
2023/11/02 03:31:42;;;;;;;2.92;0.90;;;;;;;;;;5127277;27;20026;-65
2023/11/02 03:34:08;;;;;;;1.13;0.70;;;;;;;;;;5130582;27;20034;-65
2023/11/02 03:36:43;;;;;;;2.35;0.85;;;;;;;;;;5128143;27;20023;-65
2023/11/02 03:39:12;;;;;;;2.60;0.90;;;;;;;;;;5134225;27;20011;-66
2023/11/02 03:41:45;;;;;;;4.35;0.90;;;;;;;;;;5127094;27;20027;-65
2023/11/02 03:44:26;;;;;;;2.65;0.73;;;;;;;;;;5133111;27;20026;-66
2023/11/02 03:47:11;;;;;;;1.15;0.80;;;;;;;;;;5130286;27;20033;-66
2023/11/02 03:49:44;;;;;;;2.03;0.93;;;;;;;;;;5130250;27;20047;-66
2023/11/02 03:52:20;;;;;;;3.30;1.05;;;;;;;;;;5133766;27;20018;-66
2023/11/02 03:55:02;;;;;;;2.83;1.25;;;;;;;;;;5131946;27;20052;-67
2023/11/02 03:57:30;;;;;;;2.53;0.75;;;;;;;;;;5114591;27;20198;-66
2023/11/02 04:00:10;;;;;;;2.40;1.10;;;;;;;;;;5136006;27;20455;-67
2023/11/02 04:02:43;;;;;;;2.28;1.05;;;;;;;;;;5127221;27;20015;-67
2023/11/02 04:05:23;;;;;;;1.80;0.80;;;;;;;;;;5133856;27;20107;-66
2023/11/02 04:07:49;;;;;;;;;;;;;;;;;;5132872;27;20023;-67
2023/11/02 04:10:18;;;;;;;2.10;1.27;;;;;;;;;;5134031;27;19922;-67
2023/11/02 04:12:47;;;;;;;2.65;0.90;;;;;;;;;;5132150;27;20018;-66
2023/11/02 04:15:18;;;;;;;2.00;1.55;;;;;;;;;;5132942;27;20015;-66
2023/11/02 04:17:44;;;;;;;1.45;0.88;;;;;;;;;;5129901;27;20043;-66
2023/11/02 04:20:10;;;;;;;1.98;1.08;;;;;;;;;;5133665;27;20094;-66
2023/11/02 04:22:36;;;;;;;1.60;0.85;;;;;;;;;;5132071;27;20013;-66
2023/11/02 04:25:03;;;;;;;2.30;1.10;;;;;;;;;;5133243;27;20091;-66
2023/11/02 04:27:29;;;;;;;2.67;0.90;;;;;;;;;;5132994;27;20100;-65
2023/11/02 04:29:55;;;;;;;1.65;0.88;;;;;;;;;;5132034;27;20090;-66
2023/11/02 04:32:21;;;;;;;0.95;0.80;;;;;;;;;;5133274;27;20020;-66
2023/11/02 04:34:47;;;;;;;1.33;0.90;;;;;;;;;;5133870;27;20109;-66
2023/11/02 04:37:17;;;;;;;3.17;1.27;;;;;;;;;;5130840;27;20510;-66
2023/11/02 04:39:43;;;;;;;1.30;1.20;;;;;;;;;;5132646;27;20503;-66
2023/11/02 04:42:10;;;;;;;2.90;0.80;;;;;;;;;;5133469;27;20367;-66
2023/11/02 04:44:36;;;;;;;4.35;1.10;;;;;;;;;;5132258;27;20023;-66
2023/11/02 04:47:02;;;;;;;1.80;1.05;;;;;;;;;;5133677;27;20075;-66
2023/11/02 04:49:28;;;;;;;2.38;0.88;;;;;;;;;;5132421;27;20456;-65
2023/11/02 04:52:05;;;;;;;1.10;0.93;;;;;;;;;;5132667;27;20022;-66
2023/11/02 04:54:31;;;;;;;2.00;1.15;;;;;;;;;;5132709;27;20063;-66
2023/11/02 04:56:57;;;;;;;1.33;0.90;;;;;;;;;;5132550;27;20058;-66
2023/11/02 04:59:23;;;;;;;4.78;1.60;;;;;;;;;;5132554;27;20384;-66
2023/11/02 05:01:50;;;;;;;2.00;1.00;;;;;;;;;;5132202;27;20038;-66
2023/11/02 05:04:16;;;;;;;2.35;1.00;;;;;;;;;;5132555;27;20015;-66
2023/11/02 05:06:42;;;;;;;0.60;0.60;;;;;;;;;;5132398;27;20022;-66
2023/11/02 05:09:08;;;;;;;2.97;0.80;;;;;;;;;;5132202;27;20152;-66
2023/11/02 05:11:35;;;;;;;6.10;0.88;;;;;;;;;;5132337;27;20019;-66
2023/11/02 05:14:01;;;;;;;1.05;0.73;;;;;;;;;;5132453;27;20027;-66
2023/11/02 05:16:27;;;;;;;0.63;0.60;;;;;;;;;;5132220;27;20180;-65
2023/11/02 05:18:53;;;;;;;1.67;0.77;;;;;;;;;;5131331;27;20098;-66
2023/11/02 05:21:19;;;;;;;3.13;0.82;;;;;;;;;;5132891;27;20458;-66
2023/11/02 05:23:45;;;;;;;1.33;0.90;;;;;;;;;;5131563;27;20042;-66
2023/11/02 05:26:13;;;;;;;1.38;0.70;;;;;;;;;;5132505;27;20464;-66
2023/11/02 05:28:39;;;;;;;0.88;0.57;;;;;;;;;;5131509;27;20015;-66
2023/11/02 05:31:05;;;;;;;2.55;0.80;;;;;;;;;;5131599;27;20023;-66
2023/11/02 05:33:31;;;;;;;1.15;0.80;;;;;;;;;;5129305;27;20117;-67
2023/11/02 05:35:57;;;;;;;1.38;0.90;;;;;;;;;;5132055;27;20487;-66
2023/11/02 05:38:24;;;;;;;2.28;0.70;;;;;;;;;;5131647;27;20094;-67
2023/11/02 05:40:50;;;;;;;1.83;0.90;;;;;;;;;;5131003;27;20029;-67
2023/11/02 05:43:16;;;;;;;1.48;0.70;;;;;;;;;;5131518;27;20474;-67
2023/11/02 05:45:42;;;;;;;7.57;1.20;;;;;;;;;;5130207;27;20015;-66
2023/11/02 05:48:08;;;;;;;1.48;0.80;;;;;;;;;;5128066;27;20114;-66
2023/11/02 05:50:34;;;;;;;1.65;0.90;;;;;;;;;;5130829;27;20050;-66
2023/11/02 05:53:00;;;;;;;0.63;0.60;;;;;;;;;;5131406;27;20019;-67
2023/11/02 05:55:26;;;;;;;1.95;0.80;;;;;;;;;;5132143;28;20046;-66
2023/11/02 05:57:52;;;;;;;0.80;0.60;;;;;;;;;;5130304;28;20077;-66
2023/11/02 06:00:19;;;;;;;3.25;0.77;;;;;;;;;;5131463;28;20018;-67
2023/11/02 06:02:45;;;;;;;2.58;0.95;;;;;;;;;;5127640;28;20027;-66
2023/11/02 06:05:11;;;;;;;3.83;1.00;;;;;;;;;;5131685;28;20156;-66
2023/11/02 06:07:37;;;;;;;2.78;0.70;;;;;;;;;;5130467;28;20016;-67
2023/11/02 06:10:03;;;;;;;2.65;1.10;;;;;;;;;;5131822;28;20016;-67
2023/11/02 06:12:30;;;;;;;1.40;0.60;;;;;;;;;;5131240;28;20016;-66
2023/11/02 06:14:56;;;;;;;1.67;1.00;;;;;;;;;;5130963;28;20030;-67
2023/11/02 06:17:25;;;;;;;2.42;0.93;;;;;;;;;;5131659;27;20039;-68
2023/11/02 06:19:51;;;;;;;3.75;1.10;;;;;;;;;;5130496;27;20023;-67
2023/11/02 06:22:18;;;;;;;1.35;0.70;;;;;;;;;;5136414;27;20102;-67
2023/11/02 06:24:45;;;;;;;2.72;1.00;;;;;;;;;;5131104;27;20023;-67
2023/11/02 06:27:12;;;;;;;1.75;1.23;;;;;;;;;;5130432;27;20457;-67
2023/11/02 06:29:38;;;;;;;6.45;1.17;;;;;;;;;;5132325;27;20031;-67
2023/11/02 06:32:04;;;;;;;4.75;1.45;;;;;;;;;;5134894;27;20392;-65
2023/11/02 06:34:35;;;;;;;2.05;1.20;;;;;;;;;;5132251;27;20023;-67
2023/11/02 06:37:01;;;;;;;5.25;1.42;;;;;;;;;;5135865;27;20019;-71
2023/11/02 06:39:27;;;;;;;2.45;1.23;;;;;;;;;;5135535;27;20026;-66
2023/11/02 06:41:53;;;;;;;5.00;1.50;;;;;;;;;;5135532;27;20023;-68
2023/11/02 06:44:19;;;;;;;1.52;1.25;;;;;;;;;;5135725;27;20051;-68
2023/11/02 06:46:46;;;;;;;3.88;1.70;;;;;;;;;;5135178;27;20475;-71
2023/11/02 06:49:12;;;;;;;3.47;1.73;;;;;;;;;;5133637;27;20456;-69
2023/11/02 06:51:38;;;;;;;3.42;1.83;;;;;;;;;;5134036;27;20106;-69
2023/11/02 06:54:04;;;;;;;1.60;1.40;;;;;;;;;;5134112;27;20027;-70
2023/11/02 06:56:30;;;;;;;4.35;1.52;;;;;;;;;;5134448;27;20019;-71
2023/11/02 06:58:56;;;;;;;2.53;1.27;;;;;;;;;;5128484;27;20034;-75
2023/11/02 07:01:22;;;;;;;1.90;1.40;;;;;;;;;;5141162;27;20011;-69
2023/11/02 07:03:48;;;;;;;5.38;1.60;;;;;;;;;;5125400;27;20028;-74
2023/11/02 07:06:14;;;;;;;3.88;1.55;;;;;;;;;;5122227;27;20400;-71
2023/11/02 07:08:40;;;;;;;1.45;1.05;;;;;;;;;;5133467;27;20111;-70
2023/11/02 07:11:06;;;;;;;2.22;1.40;;;;;;;;;;5134282;27;20011;-69
2023/11/02 07:13:33;;;;;;;1.42;1.20;;;;;;;;;;5133230;27;20102;-67
2023/11/02 07:15:59;;;;;;;6.35;1.52;;;;;;;;;;5134148;27;20043;-69
2023/11/02 07:18:26;;;;;;;4.00;1.15;;;;;;;;;;5135081;27;20023;-69
2023/11/02 07:20:52;;;;;;;7.63;1.65;;;;;;;;;;5138503;27;20070;-67
2023/11/02 07:23:18;;;;;;;1.88;1.50;;;;;;;;;;5134914;27;20459;-72
2023/11/02 07:25:44;;;;;;;5.50;1.80;;;;;;;;;;5139254;27;20015;-73
2023/11/02 07:28:10;;;;;;;2.80;1.60;;;;;;;;;;5130988;27;20064;-67
2023/11/02 07:30:36;;;;;;;3.60;1.95;;;;;;;;;;5125372;27;20031;-67
2023/11/02 07:33:03;;;;;;;4.30;1.85;;;;;;;;;;5127709;27;20111;-67
2023/11/02 07:35:29;;;;;;;1.30;1.20;;;;;;;;;;5127998;27;20019;-67
2023/11/02 07:37:55;;;;;;;4.68;1.20;;;;;;;;;;5120419;27;20016;-67
2023/11/02 07:40:21;;;;;;;2.30;1.13;;;;;;;;;;5124257;27;20019;-67
2023/11/02 07:42:47;;;;;;;2.75;1.42;;;;;;;;;;5130764;27;20039;-67
2023/11/02 07:45:14;;;;;;;4.80;1.33;;;;;;;;;;5131766;27;20019;-67
2023/11/02 07:47:40;;;;;;;2.25;1.20;;;;;;;;;;5131743;27;20038;-66
2023/11/02 07:50:06;;;;;;;6.25;1.25;;;;;;;;;;5134322;27;20341;-67
2023/11/02 07:52:32;;;;;;;1.77;1.00;;;;;;;;;;5128100;27;20084;-66
2023/11/02 07:54:58;;;;;;;3.15;1.60;;;;;;;;;;5129775;27;20035;-71
2023/11/02 07:57:25;;;;;;;3.10;0.93;;;;;;;;;;5131997;27;20490;-68
2023/11/02 07:59:51;;;;;;;3.03;1.15;;;;;;;;;;5132120;27;20569;-67
2023/11/02 08:02:17;;;;;;;2.47;0.90;;;;;;;;;;5122865;27;20015;-67
2023/11/02 08:04:43;;;;;;;2.50;1.10;;;;;;;;;;5132483;27;20412;-69
2023/11/02 08:07:09;;;;;;;2.08;1.15;;;;;;;;;;5127870;27;20023;-71
2023/11/02 08:09:37;;;;;;;2.83;1.02;;;;;;;;;;5131784;27;20027;-67
2023/11/02 08:12:03;;;;;;;2.88;1.23;;;;;;;;;;5131273;27;20047;-67
2023/11/02 08:14:29;;;;;;;8.48;1.92;;;;;;;;;;5132707;27;20234;-67
2023/11/02 08:16:55;;;;;;;4.00;1.70;;;;;;;;;;5120715;27;20031;-68
2023/11/02 08:19:21;;;;;;;2.97;1.35;;;;;;;;;;5132545;27;20064;-67
2023/11/02 08:21:47;;;;;;;5.63;1.40;;;;;;;;;;5130935;27;20096;-66
2023/11/02 08:24:14;;;;;;;1.35;0.98;;;;;;;;;;5130757;27;20293;-67
2023/11/02 08:26:39;;;;;;;1.83;1.15;;;;;;;;;;5124365;27;20035;-67
2023/11/02 08:29:05;;;;;;;3.85;1.10;;;;;;;;;;5132326;27;20022;-67
2023/11/02 08:31:32;;;;;;;2.47;1.20;;;;;;;;;;5131658;27;20027;-67
2023/11/02 08:33:59;;;;;;;1.30;1.13;;;;;;;;;;5131538;27;20341;-67
2023/11/02 08:36:28;;;;;;;3.88;1.02;;;;;;;;;;5133159;27;20083;-66
2023/11/02 08:38:54;;;;;;;1.58;1.00;;;;;;;;;;5131457;27;20158;-67
2023/11/02 08:41:24;;;;;;;4.25;1.45;;;;;;;;;;5133579;27;20030;-66
2023/11/02 08:43:51;;;;;;;2.00;1.15;;;;;;;;;;5137335;27;20562;-66
2023/11/02 08:46:17;;;;;;;2.47;1.25;;;;;;;;;;5131150;27;20229;-66
2023/11/02 08:48:47;;;;;;;2.05;1.17;;;;;;;;;;5122143;27;20106;-67
2023/11/02 08:51:17;;;;;;;4.22;1.40;;;;;;;;;;5131734;27;20057;-67
2023/11/02 08:53:43;;;;;;;;;;;;;;;;;;5124845;27;20032;-67
2023/11/02 08:56:09;;;;;;;2.72;1.60;;;;;;;;;;5125653;27;19910;-67
2023/11/02 08:58:42;;;;;;;2.97;1.80;;;;;;;;;;5119441;27;20021;-67
2023/11/02 09:01:08;;;;;;;3.90;1.63;;;;;;;;;;5126344;27;20173;-67
2023/11/02 09:03:38;;;;;;;5.45;1.90;;;;;;;;;;5129898;27;20478;-67
2023/11/02 09:06:07;;;;;;;4.22;1.80;;;;;;;;;;5131842;27;20015;-67
2023/11/02 09:08:34;;;;;;;2.72;1.40;;;;;;;;;;5131262;27;20019;-67
2023/11/02 09:11:01;;;;;;;4.13;1.80;;;;;;;;;;5132340;27;20019;-68
2023/11/02 09:13:27;;;;;;;4.50;1.65;;;;;;;;;;5132653;27;20072;-67
2023/11/02 09:15:53;;;;;;;3.15;1.67;;;;;;;;;;5128714;27;20047;-67
2023/11/02 09:18:20;;;;;;;3.72;1.40;;;;;;;;;;5128217;27;20444;-67
2023/11/02 09:20:46;;;;;;;1.73;1.10;;;;;;;;;;5128800;27;20046;-67
2023/11/02 09:23:12;;;;;;;3.47;1.60;;;;;;;;;;5129424;27;20015;-68
2023/11/02 09:25:38;;;;;;;6.80;1.63;;;;;;;;;;5128016;27;20031;-67
2023/11/02 09:28:04;;;;;;;3.92;1.40;;;;;;;;;;5129687;27;20106;-66
2023/11/02 09:30:30;;;;;;;1.70;1.27;;;;;;;;;;5131811;27;20023;-66
2023/11/02 09:32:56;;;;;;;2.05;1.42;;;;;;;;;;5129316;27;20046;-67
2023/11/02 09:35:22;;;;;;;2.40;1.67;;;;;;;;;;5127919;27;20110;-67
2023/11/02 09:37:48;;;;;;;4.63;1.60;;;;;;;;;;5131267;27;20047;-66
2023/11/02 09:40:15;;;;;;;4.43;1.67;;;;;;;;;;5131759;27;20069;-66
2023/11/02 09:42:44;;;;;;;7.88;1.75;;;;;;;;;;5119707;27;20019;-65
2023/11/02 09:45:10;;;;;;;3.85;1.90;;;;;;;;;;5126479;27;20099;-66
2023/11/02 09:47:38;;;;;;;1.42;1.33;;;;;;;;;;5131049;27;20482;-66
2023/11/02 09:50:04;;;;;;;6.05;2.13;;;;;;;;;;5129315;27;20019;-66
2023/11/02 09:52:31;;;;;;;4.97;1.80;;;;;;;;;;5129810;27;20102;-66
2023/11/02 09:54:57;;;;;;;3.50;1.77;;;;;;;;;;5127611;27;20031;-68
2023/11/02 09:57:23;;;;;;;4.80;1.42;;;;;;;;;;5131885;27;20024;-67
2023/11/02 09:59:49;;;;;;;3.20;1.45;;;;;;;;;;5129883;28;20083;-67
2023/11/02 10:02:17;;;;;;;6.10;1.38;;;;;;;;;;5126881;28;20030;-67
2023/11/02 10:04:43;;;;;;;3.75;1.50;;;;;;;;;;5130677;27;20426;-68
2023/11/02 10:07:10;;;;;;;3.75;1.42;;;;;;;;;;5128957;28;20104;-67
2023/11/02 10:09:38;;;;;;;1.45;0.90;;;;;;;;;;5127475;28;20019;-66
2023/11/02 10:12:04;;;;;;;2.88;1.10;;;;;;;;;;5128518;28;20031;-66
2023/11/02 10:14:32;;;;;;;1.25;0.85;;;;;;;;;;5129637;28;20051;-66
2023/11/02 10:17:02;;;;;;;1.33;0.80;;;;;;;;;;5121971;27;20043;-66
2023/11/02 10:19:29;;;;;;;;;;;;;;;;;;5130921;28;20094;-67
2023/11/02 10:21:55;;;;;;;1.38;0.70;;;;;;;;;;5131266;27;19907;-66
2023/11/02 10:24:28;;;;;;;1.95;0.93;;;;;;;;;;5126651;28;20030;-66
2023/11/02 10:26:54;;;;;;;1.48;0.80;;;;;;;;;;5120984;28;20035;-65
2023/11/02 10:29:20;;;;;;;2.88;0.88;;;;;;;;;;5127526;28;20039;-66
2023/11/02 10:31:52;;;;;;;1.77;0.88;;;;;;;;;;5130171;28;20039;-67
2023/11/02 10:34:18;;;;;;;3.38;0.90;;;;;;;;;;5131670;28;20031;-68
2023/11/02 10:36:44;;;;;;;1.65;1.10;;;;;;;;;;5130207;28;20079;-65
2023/11/02 10:39:12;;;;;;;2.38;1.73;;;;;;;;;;5141527;27;20023;-65
2023/11/02 10:41:38;;;;;;;1.52;1.20;;;;;;;;;;5135232;28;20028;-65
2023/11/02 10:44:08;;;;;;;0.80;0.80;;;;;;;;;;5128396;28;20023;-65
2023/11/02 10:46:34;;;;;;;2.42;1.15;;;;;;;;;;5129176;28;20015;-67
2023/11/02 10:49:01;;;;;;;2.67;1.00;;;;;;;;;;5130597;28;20098;-66
2023/11/02 10:51:30;;;;;;;1.63;0.65;;;;;;;;;;5130433;28;20374;-66
2023/11/02 10:54:05;;;;;;;1.70;1.00;;;;;;;;;;5129610;28;20028;-66
2023/11/02 10:56:40;;;;;;;1.20;0.90;;;;;;;;;;5130154;27;20032;-65
2023/11/02 10:59:06;;;;;;;1.70;0.98;;;;;;;;;;5130769;28;20011;-66
2023/11/02 11:01:34;;;;;;;1.00;0.75;;;;;;;;;;5126906;28;20051;-66
2023/11/02 11:04:01;;;;;;;0.70;0.43;;;;;;;;;;5115116;27;20019;-66
2023/11/02 11:06:28;;;;;;;5.28;1.77;;;;;;;;;;5123511;27;20064;-69
2023/11/02 11:08:55;;;;;;;1.38;1.05;;;;;;;;;;5131834;27;20023;-66
2023/11/02 11:11:22;;;;;;;1.40;0.85;;;;;;;;;;5125925;27;20095;-66
2023/11/02 11:13:51;;;;;;;1.95;0.95;;;;;;;;;;5127826;27;20038;-66
2023/11/02 11:16:19;;;;;;;1.38;0.80;;;;;;;;;;5132267;27;20043;-66
2023/11/02 11:18:47;;;;;;;1.70;0.75;;;;;;;;;;5132635;27;20374;-66
2023/11/02 11:21:15;;;;;;;1.17;0.70;;;;;;;;;;5133934;27;20090;-66
2023/11/02 11:23:46;;;;;;;1.50;0.73;;;;;;;;;;5125910;27;20464;-66
2023/11/02 11:26:12;;;;;;;1.63;0.82;;;;;;;;;;5127139;27;20435;-66
2023/11/02 11:28:41;;;;;;;1.05;0.68;;;;;;;;;;5105291;27;20027;-66
2023/11/02 11:31:27;;;;;;;2.58;0.73;;;;;;;;;;5143628;27;20094;-66
2023/11/02 11:33:53;;;;;;;1.38;0.50;;;;;;;;;;5123073;27;20047;-66
2023/11/02 11:36:23;;;;;;;1.35;0.60;;;;;;;;;;5132902;27;20062;-66
2023/11/02 11:38:49;;;;;;;1.85;0.60;;;;;;;;;;5124889;27;20088;-66
2023/11/02 11:41:34;;;;;;;3.03;0.98;;;;;;;;;;5115406;27;20023;-66
2023/11/02 11:44:05;;;;;;;0.98;0.57;;;;;;;;;;5128541;27;20019;-65
2023/11/02 11:46:47;;;;;;;3.45;0.70;;;;;;;;;;5134049;27;20418;-66
2023/11/02 11:49:43;;;;;;;0.55;0.40;;;;;;;;;;5131089;27;20015;-66
2023/11/02 11:52:23;;;;;;;0.93;0.50;;;;;;;;;;5128810;27;20019;-66
2023/11/02 11:54:49;;;;;;;0.40;0.38;;;;;;;;;;5132685;27;20030;-67
2023/11/02 11:57:54;;;;;;;0.90;0.60;;;;;;;;;;5129892;27;20371;-67
2023/11/02 12:00:21;;;;;;;2.67;0.80;;;;;;;;;;5019745;28;20058;-67
2023/11/02 12:02:54;;;;;;;1.83;0.57;;;;;;;;;;5027837;28;20277;-67
2023/11/02 12:05:38;;;;;;;1.83;0.60;;;;;;;;;;5027200;28;20040;-66
2023/11/02 12:08:05;;;;;;;2.15;0.93;;;;;;;;;;5019357;28;20497;-67
2023/11/02 12:10:31;;;;;;;2.53;0.60;;;;;;;;;;5019127;28;20030;-67
2023/11/02 12:12:58;;;;;;;2.17;0.40;;;;;;;;;;5013735;28;20205;-67
2023/11/02 12:15:24;;;;;;;0.95;0.50;;;;;;;;;;5025343;28;20112;-67
2023/11/02 12:17:55;;;;;;;1.52;0.80;;;;;;;;;;5032321;28;20049;-66
2023/11/02 12:20:37;;;;;;;2.03;0.80;;;;;;;;;;5030193;28;20481;-67
2023/11/02 12:23:03;;;;;;;2.25;1.00;;;;;;;;;;5025214;28;20022;-67
2023/11/02 12:25:29;;;;;;;2.05;0.63;;;;;;;;;;5028312;28;20092;-67
2023/11/02 12:27:56;;;;;;;2.72;0.80;;;;;;;;;;5031416;28;20017;-66
2023/11/02 12:30:22;;;;;;;1.75;0.70;;;;;;;;;;5042767;28;20082;-67
2023/11/02 12:32:48;;;;;;;4.35;1.17;;;;;;;;;;5105095;28;20103;-67
2023/11/02 12:35:18;;;;;;;2.95;0.85;;;;;;;;;;5112170;28;20404;-67
2023/11/02 12:37:44;;;;;;;1.75;0.70;;;;;;;;;;5112912;27;20054;-66
2023/11/02 12:40:11;;;;;;;3.45;0.60;;;;;;;;;;5123194;27;20064;-67
2023/11/02 12:42:36;;;;;;;2.60;0.75;;;;;;;;;;5110772;28;20110;-66
2023/11/02 12:45:03;;;;;;;2.20;0.80;;;;;;;;;;5112557;28;20087;-66
2023/11/02 12:47:40;;;;;;;1.67;0.93;;;;;;;;;;5103530;28;20015;-67
2023/11/02 12:50:06;;;;;;;1.35;0.65;;;;;;;;;;5112540;28;20023;-66
2023/11/02 12:52:42;;;;;;;0.93;0.60;;;;;;;;;;5111045;28;20020;-67
2023/11/02 12:55:08;;;;;;;1.85;0.60;;;;;;;;;;5113351;27;20059;-66
2023/11/02 12:57:40;;;;;;;1.10;0.50;;;;;;;;;;5110699;28;20384;-66
2023/11/02 13:00:14;;;;;;;1.65;0.65;;;;;;;;;;5106207;28;20066;-66
2023/11/02 13:02:40;;;;;;;1.88;1.02;;;;;;;;;;5109201;28;20058;-67
2023/11/02 13:05:06;;;;;;;1.77;0.63;;;;;;;;;;5112054;28;20051;-66
2023/11/02 13:07:33;;;;;;;2.42;0.60;;;;;;;;;;5110671;28;20044;-66
2023/11/02 13:10:19;;;;;;;4.20;0.80;;;;;;;;;;5111642;28;20095;-66
2023/11/02 13:12:45;;;;;;;1.15;0.55;;;;;;;;;;5082565;28;20048;-66
2023/11/02 13:15:12;;;;;;;0.90;0.50;;;;;;;;;;5108968;27;20020;-69
2023/11/02 13:17:40;;;;;;;1.25;0.70;;;;;;;;;;5123497;27;20030;-67
2023/11/02 13:20:09;;;;;;;1.40;0.70;;;;;;;;;;5132646;27;20003;-67
2023/11/02 13:22:35;;;;;;;1.50;0.73;;;;;;;;;;5125393;27;20072;-67
2023/11/02 13:25:01;;;;;;;1.63;1.00;;;;;;;;;;5132352;27;20019;-67
2023/11/02 13:27:27;;;;;;;2.17;1.05;;;;;;;;;;5127471;27;20060;-67
2023/11/02 13:29:53;;;;;;;1.70;0.60;;;;;;;;;;5131287;27;20037;-67
2023/11/02 13:32:19;;;;;;;2.88;0.60;;;;;;;;;;5131696;27;20019;-68
2023/11/02 13:34:46;;;;;;;1.45;1.02;;;;;;;;;;5130876;27;20354;-67
2023/11/02 13:37:12;;;;;;;0.52;0.50;;;;;;;;;;5125291;27;20091;-67
2023/11/02 13:39:39;;;;;;;1.45;0.80;;;;;;;;;;5131057;27;20019;-65
2023/11/02 13:42:05;;;;;;;0.73;0.50;;;;;;;;;;5131753;27;20023;-65
2023/11/02 13:44:31;;;;;;;1.67;0.70;;;;;;;;;;5126182;27;20035;-67
2023/11/02 13:46:58;;;;;;;1.67;0.80;;;;;;;;;;5121779;27;20236;-67
2023/11/02 13:49:24;;;;;;;2.35;1.00;;;;;;;;;;5131475;27;20030;-67
2023/11/02 13:51:50;;;;;;;2.40;0.60;;;;;;;;;;5121489;27;20162;-67
2023/11/02 13:54:16;;;;;;;0.40;0.40;;;;;;;;;;5131481;27;20022;-67
2023/11/02 13:56:43;;;;;;;1.75;0.73;;;;;;;;;;5122802;27;20027;-67
2023/11/02 13:59:11;;;;;;;1.27;0.50;;;;;;;;;;5129820;27;20008;-67
2023/11/02 14:01:37;;;;;;;1.67;0.50;;;;;;;;;;5119059;28;20023;-67
2023/11/02 14:04:03;;;;;;;1.38;0.50;;;;;;;;;;5131556;27;20035;-67
2023/11/02 14:06:32;;;;;;;1.00;0.63;;;;;;;;;;5125601;28;20024;-64
2023/11/02 14:08:58;;;;;;;0.93;0.40;;;;;;;;;;5129696;28;20460;-68
2023/11/02 14:11:25;;;;;;;1.70;0.50;;;;;;;;;;5127245;28;20028;-67
2023/11/02 14:13:51;;;;;;;1.13;0.50;;;;;;;;;;5129562;28;20070;-66
2023/11/02 14:16:17;;;;;;;0.50;0.50;;;;;;;;;;5130791;28;20047;-66
2023/11/02 14:18:44;;;;;;;1.83;0.70;;;;;;;;;;5129448;28;20015;-66
2023/11/02 14:21:10;;;;;;;3.65;0.60;;;;;;;;;;5130214;28;20022;-67
2023/11/02 14:23:36;;;;;;;1.17;0.60;;;;;;;;;;5129902;28;20045;-67
2023/11/02 14:26:03;;;;;;;0.60;0.60;;;;;;;;;;5131008;28;20019;-67
2023/11/02 14:28:29;;;;;;;1.95;1.10;;;;;;;;;;5130337;28;20082;-66
2023/11/02 14:30:55;;;;;;;1.45;0.80;;;;;;;;;;5129366;28;20218;-66
2023/11/02 14:33:21;;;;;;;1.55;0.85;;;;;;;;;;5130173;28;20023;-67
2023/11/02 14:35:47;;;;;;;2.13;1.08;;;;;;;;;;5129694;28;20456;-67
2023/11/02 14:38:13;;;;;;;1.75;0.70;;;;;;;;;;5132439;27;20094;-66
2023/11/02 14:40:40;;;;;;;2.97;0.57;;;;;;;;;;5134152;27;20348;-67
2023/11/02 14:43:07;;;;;;;2.35;0.80;;;;;;;;;;5132175;27;20019;-67
2023/11/02 14:45:33;;;;;;;1.33;0.70;;;;;;;;;;5134183;27;20490;-67
2023/11/02 14:47:59;;;;;;;1.67;0.95;;;;;;;;;;5134091;27;20016;-67
2023/11/02 14:50:25;;;;;;;2.97;1.05;;;;;;;;;;5135122;27;20094;-66